sensor_id;sensor_type;location;lat;lon;timestamp;temperature;humidity
57719;DHT22;43561;50.090;18.522;2024-02-04T00:05:43;7.60;99.90
57719;DHT22;43561;50.090;18.522;2024-02-04T00:15:45;7.70;99.90
57719;DHT22;43561;50.090;18.522;2024-02-04T00:25:47;7.70;99.90
57719;DHT22;43561;50.090;18.522;2024-02-04T00:35:49;7.70;99.90
57719;DHT22;43561;50.090;18.522;2024-02-04T00:45:51;7.80;99.90
57719;DHT22;43561;50.090;18.522;2024-02-04T00:55:53;7.90;99.90
57719;DHT22;43561;50.090;18.522;2024-02-04T01:05:57;7.90;99.90
57719;DHT22;43561;50.090;18.522;2024-02-04T01:15:59;8.00;99.90
57719;DHT22;43561;50.090;18.522;2024-02-04T01:26:01;8.00;99.90
57719;DHT22;43561;50.090;18.522;2024-02-04T01:36:03;8.10;99.90
57719;DHT22;43561;50.090;18.522;2024-02-04T01:46:05;8.00;99.90
57719;DHT22;43561;50.090;18.522;2024-02-04T01:56:11;8.00;99.90
57719;DHT22;43561;50.090;18.522;2024-02-04T02:06:14;7.90;99.90
57719;DHT22;43561;50.090;18.522;2024-02-04T02:16:18;7.90;99.90
57719;DHT22;43561;50.090;18.522;2024-02-04T02:26:23;7.80;99.90
57719;DHT22;43561;50.090;18.522;2024-02-04T02:36:29;7.60;99.90
57719;DHT22;43561;50.090;18.522;2024-02-04T02:46:36;7.40;99.90
57719;DHT22;43561;50.090;18.522;2024-02-04T02:56:38;7.40;99.90
57719;DHT22;43561;50.090;18.522;2024-02-04T03:06:46;7.30;99.90
57719;DHT22;43561;50.090;18.522;2024-02-04T03:16:51;7.20;99.90
57719;DHT22;43561;50.090;18.522;2024-02-04T03:26:56;7.00;99.90
57719;DHT22;43561;50.090;18.522;2024-02-04T03:36:58;7.10;99.90
57719;DHT22;43561;50.090;18.522;2024-02-04T03:47:01;7.00;99.90
57719;DHT22;43561;50.090;18.522;2024-02-04T03:57:04;7.00;99.90
57719;DHT22;43561;50.090;18.522;2024-02-04T04:07:08;7.00;99.90
57719;DHT22;43561;50.090;18.522;2024-02-04T04:17:10;7.10;99.90
57719;DHT22;43561;50.090;18.522;2024-02-04T04:27:12;7.10;99.90
57719;DHT22;43561;50.090;18.522;2024-02-04T04:37:13;7.00;99.90
57719;DHT22;43561;50.090;18.522;2024-02-04T05:10:01;6.90;99.90
57719;DHT22;43561;50.090;18.522;2024-02-04T05:20:15;7.00;99.90
57719;DHT22;43561;50.090;18.522;2024-02-04T05:30:19;6.80;99.90
57719;DHT22;43561;50.090;18.522;2024-02-04T05:40:28;6.80;99.90
57719;DHT22;43561;50.090;18.522;2024-02-04T05:50:30;6.60;99.90
57719;DHT22;43561;50.090;18.522;2024-02-04T06:11:15;6.70;99.90
57719;DHT22;43561;50.090;18.522;2024-02-04T06:21:28;6.90;99.90
57719;DHT22;43561;50.090;18.522;2024-02-04T06:31:45;6.70;99.90
57719;DHT22;43561;50.090;18.522;2024-02-04T06:41:49;6.70;99.90
57719;DHT22;43561;50.090;18.522;2024-02-04T06:51:51;6.60;99.90
57719;DHT22;43561;50.090;18.522;2024-02-04T07:02:00;6.60;99.90
57719;DHT22;43561;50.090;18.522;2024-02-04T07:12:16;6.60;99.90
57719;DHT22;43561;50.090;18.522;2024-02-04T07:22:32;6.40;99.90
57719;DHT22;43561;50.090;18.522;2024-02-04T08:15:32;6.00;99.90
57719;DHT22;43561;50.090;18.522;2024-02-04T08:48:29;7.40;99.90
57719;DHT22;43561;50.090;18.522;2024-02-04T08:58:37;7.20;99.90
57719;DHT22;43561;50.090;18.522;2024-02-04T09:08:39;7.20;99.90
57719;DHT22;43561;50.090;18.522;2024-02-04T09:18:48;7.30;99.90
57719;DHT22;43561;50.090;18.522;2024-02-04T09:29:00;7.40;99.90
57719;DHT22;43561;50.090;18.522;2024-02-04T09:39:28;7.50;99.90
57719;DHT22;43561;50.090;18.522;2024-02-04T09:50:09;7.70;99.90
57719;DHT22;43561;50.090;18.522;2024-02-04T10:00:51;8.10;99.90
57719;DHT22;43561;50.090;18.522;2024-02-04T10:10:55;8.60;99.90
57719;DHT22;43561;50.090;18.522;2024-02-04T10:21:30;8.80;99.90
57719;DHT22;43561;50.090;18.522;2024-02-04T10:31:37;8.90;99.90
57719;DHT22;43561;50.090;18.522;2024-02-04T10:41:48;9.00;99.90
57719;DHT22;43561;50.090;18.522;2024-02-04T10:52:01;8.80;99.90
57719;DHT22;43561;50.090;18.522;2024-02-04T11:02:59;8.80;99.90
57719;DHT22;43561;50.090;18.522;2024-02-04T11:45:53;8.40;99.90
57719;DHT22;43561;50.090;18.522;2024-02-04T11:56:29;8.60;99.90
57719;DHT22;43561;50.090;18.522;2024-02-04T12:06:34;8.80;99.90
57719;DHT22;43561;50.090;18.522;2024-02-04T12:16:36;8.60;99.90
57719;DHT22;43561;50.090;18.522;2024-02-04T12:26:40;8.40;99.90
57719;DHT22;43561;50.090;18.522;2024-02-04T12:36:42;8.60;99.90
57719;DHT22;43561;50.090;18.522;2024-02-04T12:46:52;8.80;99.90
57719;DHT22;43561;50.090;18.522;2024-02-04T12:56:55;8.70;99.90
57719;DHT22;43561;50.090;18.522;2024-02-04T13:07:29;8.60;99.90
57719;DHT22;43561;50.090;18.522;2024-02-04T13:28:43;7.60;99.90
57719;DHT22;43561;50.090;18.522;2024-02-04T13:50:38;7.40;99.90
57719;DHT22;43561;50.090;18.522;2024-02-04T14:01:11;7.60;99.90
57719;DHT22;43561;50.090;18.522;2024-02-04T14:11:38;7.70;99.90
57719;DHT22;43561;50.090;18.522;2024-02-04T14:21:41;7.50;99.90
57719;DHT22;43561;50.090;18.522;2024-02-04T14:43:27;7.50;99.90
57719;DHT22;43561;50.090;18.522;2024-02-04T14:54:07;7.50;99.90
57719;DHT22;43561;50.090;18.522;2024-02-04T15:04:14;7.50;99.90
57719;DHT22;43561;50.090;18.522;2024-02-04T15:14:21;7.60;99.90
57719;DHT22;43561;50.090;18.522;2024-02-04T15:24:26;7.60;99.90
57719;DHT22;43561;50.090;18.522;2024-02-04T15:35:05;7.60;99.90
57719;DHT22;43561;50.090;18.522;2024-02-04T15:56:41;7.50;99.90
57719;DHT22;43561;50.090;18.522;2024-02-04T16:06:47;7.30;99.90
57719;DHT22;43561;50.090;18.522;2024-02-04T16:16:55;7.30;99.90
57719;DHT22;43561;50.090;18.522;2024-02-04T16:27:00;7.40;99.90
57719;DHT22;43561;50.090;18.522;2024-02-04T16:37:02;7.40;99.90
57719;DHT22;43561;50.090;18.522;2024-02-04T16:47:09;7.60;99.90
57719;DHT22;43561;50.090;18.522;2024-02-04T16:57:12;7.60;99.90
57719;DHT22;43561;50.090;18.522;2024-02-04T17:07:15;7.60;99.90
57719;DHT22;43561;50.090;18.522;2024-02-04T17:17:23;7.70;99.90
57719;DHT22;43561;50.090;18.522;2024-02-04T17:27:28;7.70;99.90
57719;DHT22;43561;50.090;18.522;2024-02-04T17:37:33;7.70;99.90
57719;DHT22;43561;50.090;18.522;2024-02-04T17:47:54;7.60;99.90
57719;DHT22;43561;50.090;18.522;2024-02-04T17:57:56;7.60;99.90
57719;DHT22;43561;50.090;18.522;2024-02-04T18:07:58;7.50;99.90
57719;DHT22;43561;50.090;18.522;2024-02-04T18:18:00;7.40;99.90
57719;DHT22;43561;50.090;18.522;2024-02-04T18:28:02;7.40;99.90
57719;DHT22;43561;50.090;18.522;2024-02-04T18:38:04;7.30;99.90
57719;DHT22;43561;50.090;18.522;2024-02-04T18:48:06;7.30;99.90
57719;DHT22;43561;50.090;18.522;2024-02-04T18:58:09;7.30;99.90
57719;DHT22;43561;50.090;18.522;2024-02-04T19:08:11;7.20;99.90
57719;DHT22;43561;50.090;18.522;2024-02-04T19:18:13;7.30;99.90
57719;DHT22;43561;50.090;18.522;2024-02-04T19:28:15;7.30;99.90
57719;DHT22;43561;50.090;18.522;2024-02-04T19:38:17;7.30;99.90
57719;DHT22;43561;50.090;18.522;2024-02-04T19:48:19;7.40;99.90
57719;DHT22;43561;50.090;18.522;2024-02-04T19:58:21;7.70;99.90
57719;DHT22;43561;50.090;18.522;2024-02-04T20:08:23;7.70;99.90
57719;DHT22;43561;50.090;18.522;2024-02-04T20:18:25;7.80;99.90
57719;DHT22;43561;50.090;18.522;2024-02-04T20:28:26;7.70;99.90
57719;DHT22;43561;50.090;18.522;2024-02-04T20:38:28;7.50;99.90
57719;DHT22;43561;50.090;18.522;2024-02-04T20:48:30;7.10;99.90
57719;DHT22;43561;50.090;18.522;2024-02-04T20:58:32;6.80;99.90
57719;DHT22;43561;50.090;18.522;2024-02-04T21:08:34;6.50;99.90
57719;DHT22;43561;50.090;18.522;2024-02-04T21:18:38;6.20;99.90
57719;DHT22;43561;50.090;18.522;2024-02-04T21:28:40;5.90;99.90
57719;DHT22;43561;50.090;18.522;2024-02-04T21:38:42;5.80;99.90
57719;DHT22;43561;50.090;18.522;2024-02-04T21:48:44;5.80;99.90
57719;DHT22;43561;50.090;18.522;2024-02-04T21:58:46;5.70;99.90
57719;DHT22;43561;50.090;18.522;2024-02-04T22:08:48;5.80;99.90
57719;DHT22;43561;50.090;18.522;2024-02-04T22:18:53;5.90;99.90
57719;DHT22;43561;50.090;18.522;2024-02-04T22:28:55;5.90;99.90
57719;DHT22;43561;50.090;18.522;2024-02-04T22:38:57;5.80;99.90
57719;DHT22;43561;50.090;18.522;2024-02-04T22:48:59;5.80;99.90
57719;DHT22;43561;50.090;18.522;2024-02-04T22:59:01;5.80;99.90
57719;DHT22;43561;50.090;18.522;2024-02-04T23:09:03;5.80;99.90
57719;DHT22;43561;50.090;18.522;2024-02-04T23:19:05;5.80;99.90
57719;DHT22;43561;50.090;18.522;2024-02-04T23:29:07;5.70;99.90
57719;DHT22;43561;50.090;18.522;2024-02-04T23:39:09;5.60;99.90
57719;DHT22;43561;50.090;18.522;2024-02-04T23:49:11;5.60;99.90
57719;DHT22;43561;50.090;18.522;2024-02-04T23:59:18;5.60;99.90
